sensor_id;sensor_type;location;lat;lon;timestamp;P1;durP1;ratioP1;P2;durP2;ratioP2
22415;SDS011;12204;50.600;4.608;2022-09-04T00:04:16;9.60;;;3.05;;
22415;SDS011;12204;50.600;4.608;2022-09-04T00:09:35;7.47;;;2.70;;
22415;SDS011;12204;50.600;4.608;2022-09-04T00:14:48;6.82;;;2.50;;
22415;SDS011;12204;50.600;4.608;2022-09-04T00:20:00;7.07;;;2.90;;
22415;SDS011;12204;50.600;4.608;2022-09-04T00:25:11;7.70;;;3.20;;
22415;SDS011;12204;50.600;4.608;2022-09-04T00:30:21;7.97;;;2.75;;
22415;SDS011;12204;50.600;4.608;2022-09-04T00:35:26;5.72;;;2.30;;
22415;SDS011;12204;50.600;4.608;2022-09-04T00:40:36;8.65;;;2.40;;
22415;SDS011;12204;50.600;4.608;2022-09-04T00:45:57;6.35;;;2.40;;
22415;SDS011;12204;50.600;4.608;2022-09-04T00:51:24;5.20;;;2.38;;
22415;SDS011;12204;50.600;4.608;2022-09-04T00:56:54;5.50;;;2.08;;
22415;SDS011;12204;50.600;4.608;2022-09-04T01:08:41;8.07;;;3.05;;
22415;SDS011;12204;50.600;4.608;2022-09-04T01:14:07;6.90;;;3.27;;
22415;SDS011;12204;50.600;4.608;2022-09-04T01:19:29;6.03;;;2.70;;
22415;SDS011;12204;50.600;4.608;2022-09-04T01:24:59;6.72;;;2.80;;
22415;SDS011;12204;50.600;4.608;2022-09-04T01:30:20;9.15;;;3.08;;
22415;SDS011;12204;50.600;4.608;2022-09-04T01:35:26;6.47;;;3.20;;
22415;SDS011;12204;50.600;4.608;2022-09-04T01:40:41;9.10;;;3.78;;
22415;SDS011;12204;50.600;4.608;2022-09-04T01:46:04;7.28;;;3.80;;
22415;SDS011;12204;50.600;4.608;2022-09-04T01:51:55;7.80;;;3.88;;
22415;SDS011;12204;50.600;4.608;2022-09-04T01:57:23;8.85;;;4.30;;
22415;SDS011;12204;50.600;4.608;2022-09-04T02:02:51;7.88;;;4.32;;
22415;SDS011;12204;50.600;4.608;2022-09-04T02:08:08;8.38;;;4.40;;
22415;SDS011;12204;50.600;4.608;2022-09-04T02:13:40;8.30;;;4.53;;
22415;SDS011;12204;50.600;4.608;2022-09-04T02:19:14;8.13;;;4.25;;
22415;SDS011;12204;50.600;4.608;2022-09-04T02:24:38;8.35;;;4.45;;
22415;SDS011;12204;50.600;4.608;2022-09-04T02:29:55;9.57;;;4.30;;
22415;SDS011;12204;50.600;4.608;2022-09-04T02:35:09;7.20;;;4.10;;
22415;SDS011;12204;50.600;4.608;2022-09-04T02:40:24;8.50;;;3.78;;
22415;SDS011;12204;50.600;4.608;2022-09-04T02:45:40;11.13;;;3.60;;
22415;SDS011;12204;50.600;4.608;2022-09-04T02:50:55;7.57;;;3.55;;
22415;SDS011;12204;50.600;4.608;2022-09-04T02:56:20;7.53;;;3.30;;
22415;SDS011;12204;50.600;4.608;2022-09-04T03:01:42;6.75;;;3.25;;
22415;SDS011;12204;50.600;4.608;2022-09-04T03:06:55;8.68;;;3.17;;
22415;SDS011;12204;50.600;4.608;2022-09-04T03:17:32;9.88;;;2.75;;
22415;SDS011;12204;50.600;4.608;2022-09-04T03:22:49;9.80;;;3.17;;
22415;SDS011;12204;50.600;4.608;2022-09-04T03:28:00;9.15;;;3.38;;
22415;SDS011;12204;50.600;4.608;2022-09-04T03:33:04;9.05;;;3.25;;
22415;SDS011;12204;50.600;4.608;2022-09-04T03:38:18;7.85;;;3.25;;
22415;SDS011;12204;50.600;4.608;2022-09-04T03:43:33;8.60;;;3.35;;
22415;SDS011;12204;50.600;4.608;2022-09-04T03:48:56;11.02;;;3.40;;
22415;SDS011;12204;50.600;4.608;2022-09-04T03:54:21;10.43;;;3.40;;
22415;SDS011;12204;50.600;4.608;2022-09-04T04:00:12;6.57;;;3.30;;
22415;SDS011;12204;50.600;4.608;2022-09-04T04:05:24;8.88;;;3.53;;
22415;SDS011;12204;50.600;4.608;2022-09-04T04:10:41;7.80;;;3.28;;
22415;SDS011;12204;50.600;4.608;2022-09-04T04:16:02;8.45;;;3.60;;
22415;SDS011;12204;50.600;4.608;2022-09-04T04:21:43;6.78;;;3.40;;
22415;SDS011;12204;50.600;4.608;2022-09-04T04:27:15;7.50;;;3.50;;
22415;SDS011;12204;50.600;4.608;2022-09-04T04:32:41;7.43;;;3.50;;
22415;SDS011;12204;50.600;4.608;2022-09-04T04:38:16;7.63;;;3.23;;
22415;SDS011;12204;50.600;4.608;2022-09-04T04:44:06;6.60;;;3.13;;
22415;SDS011;12204;50.600;4.608;2022-09-04T04:49:21;12.70;;;3.00;;
22415;SDS011;12204;50.600;4.608;2022-09-04T04:54:45;6.93;;;2.88;;
22415;SDS011;12204;50.600;4.608;2022-09-04T05:00:09;5.63;;;2.72;;
22415;SDS011;12204;50.600;4.608;2022-09-04T05:05:20;7.85;;;2.60;;
22415;SDS011;12204;50.600;4.608;2022-09-04T05:10:52;6.68;;;2.70;;
22415;SDS011;12204;50.600;4.608;2022-09-04T05:16:04;6.00;;;2.67;;
22415;SDS011;12204;50.600;4.608;2022-09-04T05:21:24;8.65;;;2.80;;
22415;SDS011;12204;50.600;4.608;2022-09-04T05:26:40;7.88;;;2.90;;
22415;SDS011;12204;50.600;4.608;2022-09-04T05:31:56;5.57;;;2.60;;
22415;SDS011;12204;50.600;4.608;2022-09-04T05:37:14;5.50;;;2.42;;
22415;SDS011;12204;50.600;4.608;2022-09-04T05:42:37;6.57;;;2.50;;
22415;SDS011;12204;50.600;4.608;2022-09-04T05:48:00;6.75;;;2.50;;
22415;SDS011;12204;50.600;4.608;2022-09-04T06:53:08;4.82;;;1.80;;
22415;SDS011;12204;50.600;4.608;2022-09-04T06:58:40;3.83;;;1.67;;
22415;SDS011;12204;50.600;4.608;2022-09-04T07:04:14;8.38;;;1.70;;
22415;SDS011;12204;50.600;4.608;2022-09-04T07:09:35;9.60;;;2.00;;
22415;SDS011;12204;50.600;4.608;2022-09-04T07:15:03;10.57;;;1.77;;
22415;SDS011;12204;50.600;4.608;2022-09-04T07:21:17;7.60;;;1.88;;
22415;SDS011;12204;50.600;4.608;2022-09-04T07:26:32;6.93;;;1.80;;
22415;SDS011;12204;50.600;4.608;2022-09-04T07:31:47;6.18;;;2.03;;
22415;SDS011;12204;50.600;4.608;2022-09-04T07:37:08;5.85;;;2.13;;
22415;SDS011;12204;50.600;4.608;2022-09-04T07:42:27;7.25;;;2.10;;
22415;SDS011;12204;50.600;4.608;2022-09-04T07:47:41;7.47;;;2.10;;
22415;SDS011;12204;50.600;4.608;2022-09-04T07:58:46;10.27;;;2.20;;
22415;SDS011;12204;50.600;4.608;2022-09-04T08:04:23;7.25;;;1.90;;
22415;SDS011;12204;50.600;4.608;2022-09-04T08:10:15;7.55;;;2.10;;
22415;SDS011;12204;50.600;4.608;2022-09-04T08:15:34;4.93;;;1.98;;
22415;SDS011;12204;50.600;4.608;2022-09-04T08:20:48;5.72;;;2.08;;
22415;SDS011;12204;50.600;4.608;2022-09-04T08:26:09;7.13;;;2.28;;
22415;SDS011;12204;50.600;4.608;2022-09-04T08:31:27;5.75;;;2.58;;
22415;SDS011;12204;50.600;4.608;2022-09-04T08:36:36;6.35;;;2.95;;
22415;SDS011;12204;50.600;4.608;2022-09-04T08:54:22;5.18;;;2.80;;
22415;SDS011;12204;50.600;4.608;2022-09-04T10:30:56;6.20;;;2.50;;
22415;SDS011;12204;50.600;4.608;2022-09-04T10:37:13;6.47;;;2.50;;
22415;SDS011;12204;50.600;4.608;2022-09-04T10:42:50;6.20;;;2.20;;
22415;SDS011;12204;50.600;4.608;2022-09-04T10:48:27;7.28;;;2.00;;
22415;SDS011;12204;50.600;4.608;2022-09-04T11:05:18;5.32;;;2.17;;
22415;SDS011;12204;50.600;4.608;2022-09-04T11:10:52;5.43;;;2.10;;
22415;SDS011;12204;50.600;4.608;2022-09-04T11:22:34;7.00;;;1.80;;
22415;SDS011;12204;50.600;4.608;2022-09-04T11:34:19;6.32;;;2.05;;
22415;SDS011;12204;50.600;4.608;2022-09-04T11:40:25;9.13;;;2.40;;
22415;SDS011;12204;50.600;4.608;2022-09-04T11:52:48;7.10;;;2.25;;
22415;SDS011;12204;50.600;4.608;2022-09-04T12:05:02;7.10;;;2.47;;
22415;SDS011;12204;50.600;4.608;2022-09-04T12:10:23;4.50;;;2.08;;
22415;SDS011;12204;50.600;4.608;2022-09-04T12:16:05;7.93;;;2.88;;
22415;SDS011;12204;50.600;4.608;2022-09-04T13:05:30;4.93;;;1.90;;
22415;SDS011;12204;50.600;4.608;2022-09-04T13:11:33;5.88;;;1.83;;
22415;SDS011;12204;50.600;4.608;2022-09-04T13:16:53;4.57;;;1.65;;
22415;SDS011;12204;50.600;4.608;2022-09-04T13:22:10;4.72;;;1.80;;
22415;SDS011;12204;50.600;4.608;2022-09-04T13:27:33;5.45;;;1.42;;
22415;SDS011;12204;50.600;4.608;2022-09-04T13:33:02;4.15;;;1.50;;
22415;SDS011;12204;50.600;4.608;2022-09-04T13:38:41;5.40;;;1.30;;
22415;SDS011;12204;50.600;4.608;2022-09-04T13:44:21;6.57;;;1.30;;
22415;SDS011;12204;50.600;4.608;2022-09-04T13:50:01;5.93;;;1.27;;
22415;SDS011;12204;50.600;4.608;2022-09-04T13:55:18;5.85;;;1.20;;
22415;SDS011;12204;50.600;4.608;2022-09-04T14:00:26;4.97;;;1.30;;
22415;SDS011;12204;50.600;4.608;2022-09-04T14:05:33;6.65;;;1.20;;
22415;SDS011;12204;50.600;4.608;2022-09-04T14:10:48;6.05;;;1.02;;
22415;SDS011;12204;50.600;4.608;2022-09-04T14:16:14;5.15;;;1.10;;
22415;SDS011;12204;50.600;4.608;2022-09-04T14:21:20;5.20;;;1.00;;
22415;SDS011;12204;50.600;4.608;2022-09-04T14:26:52;5.32;;;0.90;;
22415;SDS011;12204;50.600;4.608;2022-09-04T14:32:07;3.83;;;1.10;;
22415;SDS011;12204;50.600;4.608;2022-09-04T14:37:28;3.97;;;0.98;;
22415;SDS011;12204;50.600;4.608;2022-09-04T14:43:09;3.92;;;1.10;;
22415;SDS011;12204;50.600;4.608;2022-09-04T14:48:22;4.03;;;1.13;;
22415;SDS011;12204;50.600;4.608;2022-09-04T14:53:30;4.30;;;1.20;;
22415;SDS011;12204;50.600;4.608;2022-09-04T15:03:52;4.10;;;1.23;;
22415;SDS011;12204;50.600;4.608;2022-09-04T15:09:17;4.20;;;0.90;;
22415;SDS011;12204;50.600;4.608;2022-09-04T15:14:31;5.07;;;1.20;;
22415;SDS011;12204;50.600;4.608;2022-09-04T15:19:43;3.70;;;0.90;;
22415;SDS011;12204;50.600;4.608;2022-09-04T15:24:56;3.97;;;1.08;;
22415;SDS011;12204;50.600;4.608;2022-09-04T15:30:10;3.95;;;1.00;;
22415;SDS011;12204;50.600;4.608;2022-09-04T15:35:22;3.90;;;1.27;;
22415;SDS011;12204;50.600;4.608;2022-09-04T15:40:35;4.82;;;1.13;;
22415;SDS011;12204;50.600;4.608;2022-09-04T15:46:07;3.13;;;1.08;;
22415;SDS011;12204;50.600;4.608;2022-09-04T15:51:33;5.30;;;1.02;;
22415;SDS011;12204;50.600;4.608;2022-09-04T15:56:44;3.78;;;1.02;;
22415;SDS011;12204;50.600;4.608;2022-09-04T16:02:02;3.13;;;1.00;;
22415;SDS011;12204;50.600;4.608;2022-09-04T16:07:24;4.95;;;1.40;;
22415;SDS011;12204;50.600;4.608;2022-09-04T16:12:47;4.57;;;1.30;;
22415;SDS011;12204;50.600;4.608;2022-09-04T16:17:55;3.08;;;1.20;;
22415;SDS011;12204;50.600;4.608;2022-09-04T16:23:04;4.35;;;1.13;;
22415;SDS011;12204;50.600;4.608;2022-09-04T16:28:13;2.55;;;1.00;;
22415;SDS011;12204;50.600;4.608;2022-09-04T16:33:29;3.08;;;1.23;;
22415;SDS011;12204;50.600;4.608;2022-09-04T16:38:40;6.65;;;1.10;;
22415;SDS011;12204;50.600;4.608;2022-09-04T16:44:04;3.22;;;1.13;;
22415;SDS011;12204;50.600;4.608;2022-09-04T16:49:28;3.67;;;1.00;;
22415;SDS011;12204;50.600;4.608;2022-09-04T16:54:42;2.60;;;1.10;;
22415;SDS011;12204;50.600;4.608;2022-09-04T16:59:51;6.13;;;1.10;;
22415;SDS011;12204;50.600;4.608;2022-09-04T17:05:00;7.63;;;1.20;;
22415;SDS011;12204;50.600;4.608;2022-09-04T17:10:25;3.75;;;1.00;;
22415;SDS011;12204;50.600;4.608;2022-09-04T17:15:41;5.57;;;1.20;;
22415;SDS011;12204;50.600;4.608;2022-09-04T17:26:25;3.92;;;1.10;;
22415;SDS011;12204;50.600;4.608;2022-09-04T17:31:59;4.15;;;0.90;;
22415;SDS011;12204;50.600;4.608;2022-09-04T17:37:34;5.72;;;1.20;;
22415;SDS011;12204;50.600;4.608;2022-09-04T17:43:12;4.97;;;1.20;;
22415;SDS011;12204;50.600;4.608;2022-09-04T17:48:30;3.42;;;1.15;;
22415;SDS011;12204;50.600;4.608;2022-09-04T17:53:44;4.05;;;1.20;;
22415;SDS011;12204;50.600;4.608;2022-09-04T17:58:54;5.70;;;1.30;;
22415;SDS011;12204;50.600;4.608;2022-09-04T18:04:14;2.83;;;1.02;;
22415;SDS011;12204;50.600;4.608;2022-09-04T18:09:31;4.68;;;1.40;;
22415;SDS011;12204;50.600;4.608;2022-09-04T18:14:50;4.78;;;1.10;;
22415;SDS011;12204;50.600;4.608;2022-09-04T18:20:27;5.88;;;1.17;;
22415;SDS011;12204;50.600;4.608;2022-09-04T18:25:41;6.78;;;1.30;;
22415;SDS011;12204;50.600;4.608;2022-09-04T18:30:53;2.67;;;1.10;;
22415;SDS011;12204;50.600;4.608;2022-09-04T18:36:29;3.33;;;1.23;;
22415;SDS011;12204;50.600;4.608;2022-09-04T18:42:11;3.25;;;1.20;;
22415;SDS011;12204;50.600;4.608;2022-09-04T18:47:58;4.53;;;1.20;;
22415;SDS011;12204;50.600;4.608;2022-09-04T18:53:25;3.75;;;1.20;;
22415;SDS011;12204;50.600;4.608;2022-09-04T18:58:39;2.95;;;1.00;;
22415;SDS011;12204;50.600;4.608;2022-09-04T19:03:56;4.10;;;1.33;;
22415;SDS011;12204;50.600;4.608;2022-09-04T19:09:28;3.40;;;1.30;;
22415;SDS011;12204;50.600;4.608;2022-09-04T19:15:26;17.90;;;1.58;;
22415;SDS011;12204;50.600;4.608;2022-09-04T19:20:49;10.32;;;1.30;;
22415;SDS011;12204;50.600;4.608;2022-09-04T19:26:17;5.93;;;1.40;;
22415;SDS011;12204;50.600;4.608;2022-09-04T19:31:32;7.13;;;1.25;;
22415;SDS011;12204;50.600;4.608;2022-09-04T19:36:42;6.47;;;1.15;;
22415;SDS011;12204;50.600;4.608;2022-09-04T19:41:52;6.65;;;1.60;;
22415;SDS011;12204;50.600;4.608;2022-09-04T19:47:32;6.15;;;1.30;;
22415;SDS011;12204;50.600;4.608;2022-09-04T19:52:55;5.47;;;1.35;;
22415;SDS011;12204;50.600;4.608;2022-09-04T19:58:21;4.38;;;1.25;;
22415;SDS011;12204;50.600;4.608;2022-09-04T20:03:37;5.63;;;1.27;;
22415;SDS011;12204;50.600;4.608;2022-09-04T20:08:52;5.00;;;1.17;;
22415;SDS011;12204;50.600;4.608;2022-09-04T20:14:07;6.25;;;1.33;;
22415;SDS011;12204;50.600;4.608;2022-09-04T20:19:22;5.13;;;1.25;;
22415;SDS011;12204;50.600;4.608;2022-09-04T20:24:38;5.95;;;1.40;;
22415;SDS011;12204;50.600;4.608;2022-09-04T20:30:02;12.05;;;1.45;;
22415;SDS011;12204;50.600;4.608;2022-09-04T20:35:15;9.65;;;1.40;;
22415;SDS011;12204;50.600;4.608;2022-09-04T20:40:34;8.90;;;1.50;;
22415;SDS011;12204;50.600;4.608;2022-09-04T20:45:45;7.03;;;1.45;;
22415;SDS011;12204;50.600;4.608;2022-09-04T20:51:34;8.25;;;1.40;;
22415;SDS011;12204;50.600;4.608;2022-09-04T20:57:13;3.47;;;1.35;;
22415;SDS011;12204;50.600;4.608;2022-09-04T21:02:56;4.15;;;1.40;;
22415;SDS011;12204;50.600;4.608;2022-09-04T21:08:31;5.45;;;1.58;;
22415;SDS011;12204;50.600;4.608;2022-09-04T21:13:46;8.00;;;1.50;;
22415;SDS011;12204;50.600;4.608;2022-09-04T21:19:02;4.75;;;1.50;;
22415;SDS011;12204;50.600;4.608;2022-09-04T21:24:37;8.80;;;1.70;;
22415;SDS011;12204;50.600;4.608;2022-09-04T21:30:06;8.18;;;1.70;;
22415;SDS011;12204;50.600;4.608;2022-09-04T21:35:13;6.17;;;1.50;;
22415;SDS011;12204;50.600;4.608;2022-09-04T21:40:39;4.38;;;1.40;;
22415;SDS011;12204;50.600;4.608;2022-09-04T21:46:24;4.10;;;1.33;;
22415;SDS011;12204;50.600;4.608;2022-09-04T21:52:22;3.90;;;1.33;;
22415;SDS011;12204;50.600;4.608;2022-09-04T21:58:07;2.97;;;1.17;;
22415;SDS011;12204;50.600;4.608;2022-09-04T22:04:02;5.15;;;1.40;;
22415;SDS011;12204;50.600;4.608;2022-09-04T22:09:16;5.68;;;1.50;;
22415;SDS011;12204;50.600;4.608;2022-09-04T22:15:06;4.18;;;1.30;;
22415;SDS011;12204;50.600;4.608;2022-09-04T22:20:18;5.10;;;1.20;;
22415;SDS011;12204;50.600;4.608;2022-09-04T22:25:45;4.10;;;1.30;;
22415;SDS011;12204;50.600;4.608;2022-09-04T22:43:51;7.05;;;1.33;;
22415;SDS011;12204;50.600;4.608;2022-09-04T22:49:43;4.03;;;1.50;;
22415;SDS011;12204;50.600;4.608;2022-09-04T23:08:03;3.38;;;1.40;;
22415;SDS011;12204;50.600;4.608;2022-09-04T23:13:53;5.95;;;1.30;;
22415;SDS011;12204;50.600;4.608;2022-09-04T23:25:49;3.80;;;1.10;;
22415;SDS011;12204;50.600;4.608;2022-09-04T23:31:49;3.08;;;1.20;;
22415;SDS011;12204;50.600;4.608;2022-09-04T23:37:20;4.57;;;1.30;;
22415;SDS011;12204;50.600;4.608;2022-09-04T23:43:08;5.43;;;1.35;;
22415;SDS011;12204;50.600;4.608;2022-09-04T23:49:10;3.33;;;1.42;;
22415;SDS011;12204;50.600;4.608;2022-09-04T23:55:20;4.43;;;1.20;;
